Terminal Aerodrome Forecast
Issued by NWS

Home | Current Version | Previous Version | Text Only | Print | Product List | Glossary On
Versions: 1 2 3 4 5 6 7 8 9 10 11 12 13 14 15 16 17 18 19 20 21 22 23 24 25
000
FTUS45 KREV 150100 AAA
TAFTRK
TAF AMD
KTRK 150113Z 1501/1524 23005KT P6SM SCT015
     FM150400 VRB03KT 5SM HZ SCT015
     FM151900 22012G18KT 6SM HZ BKN080
      AMD NOT SKED 1502/1512=

USA.gov is the U.S. government's official web portal to all federal, state and local government web resources and services.